Terminal Aerodrome Forecast
Issued by NWS St Louis, MO

Home | Current Version | Previous Version | Text Only | Print | Product List | Glossary On
Versions: 1 2 3 4 5 6 7 8 9 10 11 12 13 14
091
FTUS43 KLSX 222337
TAFCOU
TAF
KCOU 222337Z 2300/2324 10012KT P6SM BKN150
     FM230500 12012KT P6SM OVC050
     FM231000 13012KT P6SM VCSH OVC040
     FM231500 14012KT P6SM OVC035
     FM232000 16013G20KT P6SM SCT200=

USA.gov is the U.S. government's official web portal to all federal, state and local government web resources and services.